sensor_id;sensor_type;location;lat;lon;timestamp;P1;durP1;ratioP1;P2;durP2;ratioP2
43363;SDS011;40636;52.424;-1.948;2023-11-19T00:01:50;17.45;;;6.20;;
43363;SDS011;40636;52.424;-1.948;2023-11-19T00:04:17;22.73;;;6.10;;
43363;SDS011;40636;52.424;-1.948;2023-11-19T00:06:44;17.92;;;5.57;;
43363;SDS011;40636;52.424;-1.948;2023-11-19T00:09:11;17.92;;;4.35;;
43363;SDS011;40636;52.424;-1.948;2023-11-19T00:11:38;25.10;;;5.72;;
43363;SDS011;40636;52.424;-1.948;2023-11-19T00:14:04;16.83;;;5.32;;
43363;SDS011;40636;52.424;-1.948;2023-11-19T00:16:35;22.80;;;6.35;;
43363;SDS011;40636;52.424;-1.948;2023-11-19T00:19:01;25.67;;;6.63;;
43363;SDS011;40636;52.424;-1.948;2023-11-19T00:21:30;26.58;;;6.10;;
43363;SDS011;40636;52.424;-1.948;2023-11-19T00:23:59;23.80;;;5.03;;
43363;SDS011;40636;52.424;-1.948;2023-11-19T00:26:26;17.00;;;5.57;;
43363;SDS011;40636;52.424;-1.948;2023-11-19T00:28:53;22.77;;;5.70;;
43363;SDS011;40636;52.424;-1.948;2023-11-19T00:31:19;18.67;;;5.53;;
43363;SDS011;40636;52.424;-1.948;2023-11-19T00:33:46;16.52;;;5.53;;
43363;SDS011;40636;52.424;-1.948;2023-11-19T00:36:16;23.20;;;5.50;;
43363;SDS011;40636;52.424;-1.948;2023-11-19T00:38:42;22.35;;;5.03;;
43363;SDS011;40636;52.424;-1.948;2023-11-19T00:41:09;18.85;;;4.72;;
43363;SDS011;40636;52.424;-1.948;2023-11-19T00:43:36;20.40;;;4.68;;
43363;SDS011;40636;52.424;-1.948;2023-11-19T00:46:03;19.60;;;5.75;;
43363;SDS011;40636;52.424;-1.948;2023-11-19T00:48:33;19.02;;;4.75;;
43363;SDS011;40636;52.424;-1.948;2023-11-19T00:51:00;21.42;;;5.18;;
43363;SDS011;40636;52.424;-1.948;2023-11-19T00:53:27;26.83;;;5.95;;
43363;SDS011;40636;52.424;-1.948;2023-11-19T00:55:53;24.30;;;5.60;;
43363;SDS011;40636;52.424;-1.948;2023-11-19T00:58:20;21.05;;;5.22;;
43363;SDS011;40636;52.424;-1.948;2023-11-19T01:00:47;24.90;;;5.55;;
43363;SDS011;40636;52.424;-1.948;2023-11-19T01:03:13;19.13;;;5.20;;
43363;SDS011;40636;52.424;-1.948;2023-11-19T01:05:41;22.27;;;4.90;;
43363;SDS011;40636;52.424;-1.948;2023-11-19T01:08:08;22.33;;;4.55;;
43363;SDS011;40636;52.424;-1.948;2023-11-19T01:10:38;16.48;;;4.93;;
43363;SDS011;40636;52.424;-1.948;2023-11-19T01:13:05;22.48;;;4.55;;
43363;SDS011;40636;52.424;-1.948;2023-11-19T01:15:32;14.05;;;5.10;;
43363;SDS011;40636;52.424;-1.948;2023-11-19T01:17:59;17.05;;;4.45;;
43363;SDS011;40636;52.424;-1.948;2023-11-19T01:20:28;13.73;;;3.88;;
43363;SDS011;40636;52.424;-1.948;2023-11-19T01:22:55;20.02;;;6.43;;
43363;SDS011;40636;52.424;-1.948;2023-11-19T01:25:22;16.92;;;4.82;;
43363;SDS011;40636;52.424;-1.948;2023-11-19T01:27:49;18.77;;;5.30;;
43363;SDS011;40636;52.424;-1.948;2023-11-19T01:30:16;17.50;;;4.43;;
43363;SDS011;40636;52.424;-1.948;2023-11-19T01:32:43;16.70;;;4.45;;
43363;SDS011;40636;52.424;-1.948;2023-11-19T01:35:10;20.90;;;5.65;;
43363;SDS011;40636;52.424;-1.948;2023-11-19T01:37:37;14.27;;;4.45;;
43363;SDS011;40636;52.424;-1.948;2023-11-19T01:40:04;19.52;;;4.22;;
43363;SDS011;40636;52.424;-1.948;2023-11-19T01:42:38;12.23;;;3.80;;
43363;SDS011;40636;52.424;-1.948;2023-11-19T01:45:05;16.10;;;4.95;;
43363;SDS011;40636;52.424;-1.948;2023-11-19T01:47:34;14.80;;;3.72;;
43363;SDS011;40636;52.424;-1.948;2023-11-19T01:50:03;13.93;;;4.40;;
43363;SDS011;40636;52.424;-1.948;2023-11-19T01:52:33;18.17;;;4.78;;
43363;SDS011;40636;52.424;-1.948;2023-11-19T01:55:03;12.40;;;4.85;;
43363;SDS011;40636;52.424;-1.948;2023-11-19T01:57:30;14.13;;;4.28;;
43363;SDS011;40636;52.424;-1.948;2023-11-19T01:59:57;21.23;;;5.00;;
43363;SDS011;40636;52.424;-1.948;2023-11-19T02:02:24;14.15;;;3.97;;
43363;SDS011;40636;52.424;-1.948;2023-11-19T02:04:52;17.92;;;4.22;;
43363;SDS011;40636;52.424;-1.948;2023-11-19T02:07:20;18.88;;;5.40;;
43363;SDS011;40636;52.424;-1.948;2023-11-19T02:09:47;13.85;;;4.20;;
43363;SDS011;40636;52.424;-1.948;2023-11-19T02:12:14;13.60;;;4.80;;
43363;SDS011;40636;52.424;-1.948;2023-11-19T02:14:41;18.20;;;4.10;;
43363;SDS011;40636;52.424;-1.948;2023-11-19T02:17:22;17.63;;;4.72;;
43363;SDS011;40636;52.424;-1.948;2023-11-19T02:19:52;20.73;;;4.47;;
43363;SDS011;40636;52.424;-1.948;2023-11-19T02:22:19;17.42;;;4.47;;
43363;SDS011;40636;52.424;-1.948;2023-11-19T02:24:46;17.48;;;4.30;;
43363;SDS011;40636;52.424;-1.948;2023-11-19T02:27:25;15.18;;;4.93;;
43363;SDS011;40636;52.424;-1.948;2023-11-19T02:29:57;13.93;;;3.80;;
43363;SDS011;40636;52.424;-1.948;2023-11-19T02:32:27;12.63;;;3.65;;
43363;SDS011;40636;52.424;-1.948;2023-11-19T02:34:54;15.25;;;4.40;;
43363;SDS011;40636;52.424;-1.948;2023-11-19T02:37:34;14.60;;;4.20;;
43363;SDS011;40636;52.424;-1.948;2023-11-19T02:40:01;15.40;;;3.90;;
43363;SDS011;40636;52.424;-1.948;2023-11-19T02:42:29;17.50;;;5.03;;
43363;SDS011;40636;52.424;-1.948;2023-11-19T02:44:56;14.07;;;4.63;;
43363;SDS011;40636;52.424;-1.948;2023-11-19T02:47:23;16.63;;;4.88;;
43363;SDS011;40636;52.424;-1.948;2023-11-19T02:49:50;24.45;;;4.40;;
43363;SDS011;40636;52.424;-1.948;2023-11-19T02:52:17;16.02;;;5.03;;
43363;SDS011;40636;52.424;-1.948;2023-11-19T02:54:45;20.02;;;5.18;;
43363;SDS011;40636;52.424;-1.948;2023-11-19T02:57:11;19.38;;;4.55;;
43363;SDS011;40636;52.424;-1.948;2023-11-19T02:59:48;18.50;;;4.40;;
43363;SDS011;40636;52.424;-1.948;2023-11-19T03:02:15;16.30;;;4.82;;
43363;SDS011;40636;52.424;-1.948;2023-11-19T03:04:44;15.90;;;4.05;;
43363;SDS011;40636;52.424;-1.948;2023-11-19T03:07:12;18.38;;;5.00;;
43363;SDS011;40636;52.424;-1.948;2023-11-19T03:09:40;11.82;;;3.95;;
43363;SDS011;40636;52.424;-1.948;2023-11-19T03:12:07;17.83;;;4.47;;
43363;SDS011;40636;52.424;-1.948;2023-11-19T03:14:34;20.67;;;4.60;;
43363;SDS011;40636;52.424;-1.948;2023-11-19T03:17:01;17.95;;;4.65;;
43363;SDS011;40636;52.424;-1.948;2023-11-19T03:19:28;18.50;;;4.18;;
43363;SDS011;40636;52.424;-1.948;2023-11-19T03:21:56;16.77;;;5.00;;
43363;SDS011;40636;52.424;-1.948;2023-11-19T03:24:23;17.48;;;4.30;;
43363;SDS011;40636;52.424;-1.948;2023-11-19T03:26:51;17.55;;;4.72;;
43363;SDS011;40636;52.424;-1.948;2023-11-19T03:29:18;16.02;;;5.32;;
43363;SDS011;40636;52.424;-1.948;2023-11-19T03:31:44;19.63;;;4.20;;
43363;SDS011;40636;52.424;-1.948;2023-11-19T03:34:11;21.05;;;6.05;;
43363;SDS011;40636;52.424;-1.948;2023-11-19T03:36:38;16.17;;;4.47;;
43363;SDS011;40636;52.424;-1.948;2023-11-19T03:39:06;21.08;;;5.20;;
43363;SDS011;40636;52.424;-1.948;2023-11-19T03:41:33;22.52;;;5.18;;
43363;SDS011;40636;52.424;-1.948;2023-11-19T03:44:02;23.42;;;5.18;;
43363;SDS011;40636;52.424;-1.948;2023-11-19T03:46:29;15.32;;;5.47;;
43363;SDS011;40636;52.424;-1.948;2023-11-19T03:48:56;14.25;;;4.85;;
43363;SDS011;40636;52.424;-1.948;2023-11-19T03:51:23;18.58;;;4.50;;
43363;SDS011;40636;52.424;-1.948;2023-11-19T03:53:50;14.23;;;4.93;;
43363;SDS011;40636;52.424;-1.948;2023-11-19T03:56:16;18.17;;;4.38;;
43363;SDS011;40636;52.424;-1.948;2023-11-19T03:58:43;15.95;;;4.40;;
43363;SDS011;40636;52.424;-1.948;2023-11-19T04:01:13;15.80;;;3.78;;
43363;SDS011;40636;52.424;-1.948;2023-11-19T04:03:40;14.82;;;4.15;;
43363;SDS011;40636;52.424;-1.948;2023-11-19T04:06:10;16.90;;;4.05;;
43363;SDS011;40636;52.424;-1.948;2023-11-19T04:08:37;13.52;;;3.75;;
43363;SDS011;40636;52.424;-1.948;2023-11-19T04:11:04;14.13;;;3.85;;
43363;SDS011;40636;52.424;-1.948;2023-11-19T04:13:30;16.73;;;3.47;;
43363;SDS011;40636;52.424;-1.948;2023-11-19T04:15:57;17.98;;;4.88;;
43363;SDS011;40636;52.424;-1.948;2023-11-19T04:18:24;11.60;;;3.40;;
43363;SDS011;40636;52.424;-1.948;2023-11-19T04:20:51;15.73;;;3.78;;
43363;SDS011;40636;52.424;-1.948;2023-11-19T04:23:17;13.10;;;3.88;;
43363;SDS011;40636;52.424;-1.948;2023-11-19T04:25:44;9.00;;;2.95;;
43363;SDS011;40636;52.424;-1.948;2023-11-19T04:28:11;11.82;;;3.60;;
43363;SDS011;40636;52.424;-1.948;2023-11-19T04:30:37;11.32;;;3.78;;
43363;SDS011;40636;52.424;-1.948;2023-11-19T04:33:04;12.13;;;3.85;;
43363;SDS011;40636;52.424;-1.948;2023-11-19T04:35:32;18.50;;;4.45;;
43363;SDS011;40636;52.424;-1.948;2023-11-19T04:37:58;15.65;;;4.18;;
43363;SDS011;40636;52.424;-1.948;2023-11-19T04:40:25;12.23;;;3.35;;
43363;SDS011;40636;52.424;-1.948;2023-11-19T04:42:52;17.92;;;4.22;;
43363;SDS011;40636;52.424;-1.948;2023-11-19T04:45:19;16.40;;;4.63;;
43363;SDS011;40636;52.424;-1.948;2023-11-19T04:47:46;20.33;;;4.32;;
43363;SDS011;40636;52.424;-1.948;2023-11-19T04:50:13;17.15;;;4.30;;
43363;SDS011;40636;52.424;-1.948;2023-11-19T04:52:39;15.57;;;4.03;;
43363;SDS011;40636;52.424;-1.948;2023-11-19T04:55:06;18.88;;;4.95;;
43363;SDS011;40636;52.424;-1.948;2023-11-19T04:57:34;17.25;;;3.83;;
43363;SDS011;40636;52.424;-1.948;2023-11-19T05:00:00;17.98;;;4.35;;
43363;SDS011;40636;52.424;-1.948;2023-11-19T05:02:27;15.23;;;4.35;;
43363;SDS011;40636;52.424;-1.948;2023-11-19T05:04:54;17.85;;;4.32;;
43363;SDS011;40636;52.424;-1.948;2023-11-19T05:07:21;12.18;;;3.65;;
43363;SDS011;40636;52.424;-1.948;2023-11-19T05:09:48;15.85;;;4.25;;
43363;SDS011;40636;52.424;-1.948;2023-11-19T05:12:14;19.95;;;3.65;;
43363;SDS011;40636;52.424;-1.948;2023-11-19T05:14:41;12.70;;;3.92;;
43363;SDS011;40636;52.424;-1.948;2023-11-19T05:17:16;15.15;;;4.60;;
43363;SDS011;40636;52.424;-1.948;2023-11-19T05:19:44;15.10;;;4.38;;
43363;SDS011;40636;52.424;-1.948;2023-11-19T05:22:11;12.30;;;3.22;;
43363;SDS011;40636;52.424;-1.948;2023-11-19T05:24:39;15.90;;;4.43;;
43363;SDS011;40636;52.424;-1.948;2023-11-19T05:27:07;13.93;;;3.85;;
43363;SDS011;40636;52.424;-1.948;2023-11-19T05:29:34;8.48;;;3.03;;
43363;SDS011;40636;52.424;-1.948;2023-11-19T05:32:01;13.82;;;3.42;;
43363;SDS011;40636;52.424;-1.948;2023-11-19T05:34:27;13.18;;;3.33;;
43363;SDS011;40636;52.424;-1.948;2023-11-19T05:36:55;15.60;;;3.85;;
43363;SDS011;40636;52.424;-1.948;2023-11-19T05:39:22;16.48;;;3.22;;
43363;SDS011;40636;52.424;-1.948;2023-11-19T05:41:48;16.75;;;3.50;;
43363;SDS011;40636;52.424;-1.948;2023-11-19T05:44:15;10.48;;;2.92;;
43363;SDS011;40636;52.424;-1.948;2023-11-19T05:46:42;12.77;;;3.80;;
43363;SDS011;40636;52.424;-1.948;2023-11-19T05:49:10;13.05;;;3.05;;
43363;SDS011;40636;52.424;-1.948;2023-11-19T05:51:37;14.32;;;3.20;;
43363;SDS011;40636;52.424;-1.948;2023-11-19T05:54:08;15.25;;;3.13;;
43363;SDS011;40636;52.424;-1.948;2023-11-19T05:56:36;8.68;;;3.30;;
43363;SDS011;40636;52.424;-1.948;2023-11-19T05:59:03;13.65;;;3.83;;
43363;SDS011;40636;52.424;-1.948;2023-11-19T06:01:34;10.43;;;3.00;;
43363;SDS011;40636;52.424;-1.948;2023-11-19T06:04:01;15.93;;;3.97;;
43363;SDS011;40636;52.424;-1.948;2023-11-19T06:06:28;13.20;;;3.70;;
43363;SDS011;40636;52.424;-1.948;2023-11-19T06:08:55;15.90;;;3.40;;
43363;SDS011;40636;52.424;-1.948;2023-11-19T06:11:22;10.15;;;2.92;;
43363;SDS011;40636;52.424;-1.948;2023-11-19T06:13:49;12.82;;;3.75;;
43363;SDS011;40636;52.424;-1.948;2023-11-19T06:16:17;10.48;;;3.08;;
43363;SDS011;40636;52.424;-1.948;2023-11-19T06:18:45;15.90;;;3.13;;
43363;SDS011;40636;52.424;-1.948;2023-11-19T06:21:12;12.93;;;4.07;;
43363;SDS011;40636;52.424;-1.948;2023-11-19T06:23:39;12.82;;;3.72;;
43363;SDS011;40636;52.424;-1.948;2023-11-19T06:26:05;11.82;;;4.05;;
43363;SDS011;40636;52.424;-1.948;2023-11-19T06:28:32;15.82;;;3.53;;
43363;SDS011;40636;52.424;-1.948;2023-11-19T06:30:59;11.10;;;3.08;;
43363;SDS011;40636;52.424;-1.948;2023-11-19T06:33:27;15.65;;;3.97;;
43363;SDS011;40636;52.424;-1.948;2023-11-19T06:35:53;15.43;;;3.40;;
43363;SDS011;40636;52.424;-1.948;2023-11-19T06:38:21;9.73;;;3.17;;
43363;SDS011;40636;52.424;-1.948;2023-11-19T06:40:47;12.07;;;3.10;;
43363;SDS011;40636;52.424;-1.948;2023-11-19T06:43:19;9.38;;;3.05;;
43363;SDS011;40636;52.424;-1.948;2023-11-19T06:45:45;11.38;;;3.15;;
43363;SDS011;40636;52.424;-1.948;2023-11-19T06:48:12;11.93;;;2.72;;
43363;SDS011;40636;52.424;-1.948;2023-11-19T06:50:39;10.88;;;3.05;;
43363;SDS011;40636;52.424;-1.948;2023-11-19T06:53:05;10.27;;;3.38;;
43363;SDS011;40636;52.424;-1.948;2023-11-19T06:55:36;10.52;;;2.83;;
43363;SDS011;40636;52.424;-1.948;2023-11-19T06:58:03;15.95;;;3.53;;
43363;SDS011;40636;52.424;-1.948;2023-11-19T07:00:30;11.40;;;3.03;;
43363;SDS011;40636;52.424;-1.948;2023-11-19T07:02:59;11.25;;;2.90;;
43363;SDS011;40636;52.424;-1.948;2023-11-19T07:05:26;10.88;;;2.88;;
43363;SDS011;40636;52.424;-1.948;2023-11-19T07:07:54;10.27;;;3.10;;
43363;SDS011;40636;52.424;-1.948;2023-11-19T07:10:22;10.07;;;3.00;;
43363;SDS011;40636;52.424;-1.948;2023-11-19T07:12:48;9.82;;;2.67;;
43363;SDS011;40636;52.424;-1.948;2023-11-19T07:15:16;11.10;;;2.95;;
43363;SDS011;40636;52.424;-1.948;2023-11-19T07:17:44;12.95;;;3.22;;
43363;SDS011;40636;52.424;-1.948;2023-11-19T07:20:11;9.43;;;3.17;;
43363;SDS011;40636;52.424;-1.948;2023-11-19T07:22:45;12.90;;;3.10;;
43363;SDS011;40636;52.424;-1.948;2023-11-19T07:25:15;11.55;;;3.50;;
43363;SDS011;40636;52.424;-1.948;2023-11-19T07:27:41;14.98;;;2.70;;
43363;SDS011;40636;52.424;-1.948;2023-11-19T07:30:09;12.25;;;3.72;;
43363;SDS011;40636;52.424;-1.948;2023-11-19T07:32:36;12.88;;;2.95;;
43363;SDS011;40636;52.424;-1.948;2023-11-19T07:35:05;17.27;;;4.65;;
43363;SDS011;40636;52.424;-1.948;2023-11-19T07:37:33;9.75;;;2.70;;
43363;SDS011;40636;52.424;-1.948;2023-11-19T07:39:59;13.68;;;3.50;;
43363;SDS011;40636;52.424;-1.948;2023-11-19T07:42:26;8.65;;;2.42;;
43363;SDS011;40636;52.424;-1.948;2023-11-19T07:44:53;11.57;;;3.50;;
43363;SDS011;40636;52.424;-1.948;2023-11-19T07:47:21;12.73;;;3.08;;
43363;SDS011;40636;52.424;-1.948;2023-11-19T07:49:50;10.82;;;2.50;;
43363;SDS011;40636;52.424;-1.948;2023-11-19T07:52:17;10.50;;;2.85;;
43363;SDS011;40636;52.424;-1.948;2023-11-19T07:54:46;14.68;;;2.85;;
43363;SDS011;40636;52.424;-1.948;2023-11-19T07:57:13;7.53;;;2.47;;
43363;SDS011;40636;52.424;-1.948;2023-11-19T07:59:40;13.98;;;3.03;;
43363;SDS011;40636;52.424;-1.948;2023-11-19T08:02:07;9.82;;;3.13;;
43363;SDS011;40636;52.424;-1.948;2023-11-19T08:04:34;9.93;;;3.17;;
43363;SDS011;40636;52.424;-1.948;2023-11-19T08:07:01;12.43;;;3.72;;
43363;SDS011;40636;52.424;-1.948;2023-11-19T08:09:28;9.63;;;3.45;;
43363;SDS011;40636;52.424;-1.948;2023-11-19T08:11:55;14.40;;;3.55;;
43363;SDS011;40636;52.424;-1.948;2023-11-19T08:14:22;13.30;;;3.90;;
43363;SDS011;40636;52.424;-1.948;2023-11-19T08:16:50;11.88;;;3.55;;
43363;SDS011;40636;52.424;-1.948;2023-11-19T08:19:17;14.68;;;3.15;;
43363;SDS011;40636;52.424;-1.948;2023-11-19T08:21:44;15.48;;;4.43;;
43363;SDS011;40636;52.424;-1.948;2023-11-19T08:24:11;14.90;;;4.43;;
43363;SDS011;40636;52.424;-1.948;2023-11-19T08:26:37;13.25;;;4.00;;
43363;SDS011;40636;52.424;-1.948;2023-11-19T08:29:04;15.57;;;3.50;;
43363;SDS011;40636;52.424;-1.948;2023-11-19T08:31:31;9.85;;;3.50;;
43363;SDS011;40636;52.424;-1.948;2023-11-19T08:33:58;17.58;;;3.92;;
43363;SDS011;40636;52.424;-1.948;2023-11-19T08:36:25;12.52;;;3.53;;
43363;SDS011;40636;52.424;-1.948;2023-11-19T08:38:52;10.70;;;3.88;;
43363;SDS011;40636;52.424;-1.948;2023-11-19T08:41:18;17.42;;;4.22;;
43363;SDS011;40636;52.424;-1.948;2023-11-19T08:43:45;13.93;;;3.55;;
43363;SDS011;40636;52.424;-1.948;2023-11-19T08:46:12;16.77;;;3.70;;
43363;SDS011;40636;52.424;-1.948;2023-11-19T08:48:40;13.93;;;3.90;;
43363;SDS011;40636;52.424;-1.948;2023-11-19T08:51:07;16.15;;;4.28;;
43363;SDS011;40636;52.424;-1.948;2023-11-19T08:53:33;12.75;;;3.45;;
43363;SDS011;40636;52.424;-1.948;2023-11-19T08:56:01;11.05;;;3.30;;
43363;SDS011;40636;52.424;-1.948;2023-11-19T08:58:29;13.55;;;3.75;;
43363;SDS011;40636;52.424;-1.948;2023-11-19T09:00:57;17.30;;;3.80;;
43363;SDS011;40636;52.424;-1.948;2023-11-19T09:03:24;9.48;;;3.67;;
43363;SDS011;40636;52.424;-1.948;2023-11-19T09:05:56;8.80;;;3.67;;
43363;SDS011;40636;52.424;-1.948;2023-11-19T09:08:23;11.45;;;3.10;;
43363;SDS011;40636;52.424;-1.948;2023-11-19T09:10:50;9.25;;;2.97;;
43363;SDS011;40636;52.424;-1.948;2023-11-19T09:13:17;8.63;;;2.47;;
43363;SDS011;40636;52.424;-1.948;2023-11-19T09:15:44;9.55;;;2.92;;
43363;SDS011;40636;52.424;-1.948;2023-11-19T09:18:11;9.27;;;2.78;;
43363;SDS011;40636;52.424;-1.948;2023-11-19T09:20:37;8.38;;;2.60;;
43363;SDS011;40636;52.424;-1.948;2023-11-19T09:23:05;10.57;;;2.92;;
43363;SDS011;40636;52.424;-1.948;2023-11-19T09:25:35;8.75;;;2.88;;
43363;SDS011;40636;52.424;-1.948;2023-11-19T09:28:05;9.23;;;3.17;;
43363;SDS011;40636;52.424;-1.948;2023-11-19T09:30:32;8.90;;;2.50;;
43363;SDS011;40636;52.424;-1.948;2023-11-19T09:33:00;9.85;;;2.60;;
43363;SDS011;40636;52.424;-1.948;2023-11-19T09:35:27;10.68;;;2.65;;
43363;SDS011;40636;52.424;-1.948;2023-11-19T09:37:54;12.90;;;3.22;;
43363;SDS011;40636;52.424;-1.948;2023-11-19T09:40:21;14.52;;;2.80;;
43363;SDS011;40636;52.424;-1.948;2023-11-19T09:42:48;5.85;;;2.25;;
43363;SDS011;40636;52.424;-1.948;2023-11-19T09:45:15;9.63;;;2.92;;
43363;SDS011;40636;52.424;-1.948;2023-11-19T09:47:44;11.43;;;3.28;;
43363;SDS011;40636;52.424;-1.948;2023-11-19T09:50:16;7.65;;;2.55;;
43363;SDS011;40636;52.424;-1.948;2023-11-19T09:52:47;7.70;;;2.60;;
43363;SDS011;40636;52.424;-1.948;2023-11-19T09:55:14;5.60;;;2.13;;
43363;SDS011;40636;52.424;-1.948;2023-11-19T09:57:41;8.60;;;2.70;;
43363;SDS011;40636;52.424;-1.948;2023-11-19T10:00:08;8.95;;;2.10;;
43363;SDS011;40636;52.424;-1.948;2023-11-19T10:02:37;6.22;;;2.47;;
43363;SDS011;40636;52.424;-1.948;2023-11-19T10:05:06;8.95;;;2.10;;
43363;SDS011;40636;52.424;-1.948;2023-11-19T10:07:33;8.98;;;2.42;;
43363;SDS011;40636;52.424;-1.948;2023-11-19T10:10:01;9.60;;;2.17;;
43363;SDS011;40636;52.424;-1.948;2023-11-19T10:12:30;4.72;;;2.03;;
43363;SDS011;40636;52.424;-1.948;2023-11-19T10:14:57;9.35;;;2.90;;
43363;SDS011;40636;52.424;-1.948;2023-11-19T10:17:43;7.13;;;2.45;;
43363;SDS011;40636;52.424;-1.948;2023-11-19T10:20:09;6.97;;;2.50;;
43363;SDS011;40636;52.424;-1.948;2023-11-19T10:22:37;9.15;;;2.78;;
43363;SDS011;40636;52.424;-1.948;2023-11-19T10:25:05;5.28;;;2.03;;
43363;SDS011;40636;52.424;-1.948;2023-11-19T10:27:48;8.05;;;2.78;;
43363;SDS011;40636;52.424;-1.948;2023-11-19T10:30:24;9.70;;;2.40;;
43363;SDS011;40636;52.424;-1.948;2023-11-19T10:35:37;8.40;;;2.20;;
43363;SDS011;40636;52.424;-1.948;2023-11-19T10:40:51;8.48;;;2.20;;
43363;SDS011;40636;52.424;-1.948;2023-11-19T10:43:19;13.25;;;2.58;;
43363;SDS011;40636;52.424;-1.948;2023-11-19T10:45:49;12.02;;;3.08;;
43363;SDS011;40636;52.424;-1.948;2023-11-19T10:48:16;8.55;;;2.33;;
43363;SDS011;40636;52.424;-1.948;2023-11-19T10:50:43;5.97;;;1.65;;
43363;SDS011;40636;52.424;-1.948;2023-11-19T10:53:12;8.02;;;2.00;;
43363;SDS011;40636;52.424;-1.948;2023-11-19T10:55:42;8.07;;;2.45;;
43363;SDS011;40636;52.424;-1.948;2023-11-19T10:58:15;7.45;;;2.42;;
43363;SDS011;40636;52.424;-1.948;2023-11-19T11:00:47;9.23;;;2.65;;
43363;SDS011;40636;52.424;-1.948;2023-11-19T11:03:20;8.75;;;2.42;;
43363;SDS011;40636;52.424;-1.948;2023-11-19T11:05:49;7.22;;;2.40;;
43363;SDS011;40636;52.424;-1.948;2023-11-19T11:08:18;6.57;;;2.35;;
43363;SDS011;40636;52.424;-1.948;2023-11-19T11:10:47;5.75;;;2.28;;
43363;SDS011;40636;52.424;-1.948;2023-11-19T11:13:20;7.25;;;2.80;;
43363;SDS011;40636;52.424;-1.948;2023-11-19T11:15:50;13.85;;;3.28;;
43363;SDS011;40636;52.424;-1.948;2023-11-19T11:18:17;10.13;;;2.83;;
43363;SDS011;40636;52.424;-1.948;2023-11-19T11:20:47;9.27;;;2.35;;
43363;SDS011;40636;52.424;-1.948;2023-11-19T11:35:08;7.93;;;2.70;;
43363;SDS011;40636;52.424;-1.948;2023-11-19T11:38:03;8.55;;;2.67;;
43363;SDS011;40636;52.424;-1.948;2023-11-19T11:40:33;6.95;;;2.40;;
43363;SDS011;40636;52.424;-1.948;2023-11-19T11:43:01;9.55;;;2.33;;
43363;SDS011;40636;52.424;-1.948;2023-11-19T11:45:38;8.07;;;2.22;;
43363;SDS011;40636;52.424;-1.948;2023-11-19T11:48:08;7.95;;;2.13;;
43363;SDS011;40636;52.424;-1.948;2023-11-19T11:50:54;6.75;;;2.50;;
43363;SDS011;40636;52.424;-1.948;2023-11-19T11:53:24;6.95;;;1.83;;
43363;SDS011;40636;52.424;-1.948;2023-11-19T11:55:53;6.68;;;2.05;;
43363;SDS011;40636;52.424;-1.948;2023-11-19T11:58:26;6.03;;;2.13;;
43363;SDS011;40636;52.424;-1.948;2023-11-19T12:00:57;9.23;;;2.15;;
43363;SDS011;40636;52.424;-1.948;2023-11-19T12:03:27;6.97;;;2.30;;
43363;SDS011;40636;52.424;-1.948;2023-11-19T12:05:56;7.80;;;1.92;;
43363;SDS011;40636;52.424;-1.948;2023-11-19T12:08:25;5.20;;;2.05;;
43363;SDS011;40636;52.424;-1.948;2023-11-19T12:10:54;7.53;;;1.60;;
43363;SDS011;40636;52.424;-1.948;2023-11-19T12:13:26;4.25;;;1.75;;
43363;SDS011;40636;52.424;-1.948;2023-11-19T12:16:12;9.80;;;4.28;;
43363;SDS011;40636;52.424;-1.948;2023-11-19T12:18:39;6.78;;;3.00;;
43363;SDS011;40636;52.424;-1.948;2023-11-19T12:21:07;3.83;;;2.22;;
43363;SDS011;40636;52.424;-1.948;2023-11-19T12:23:44;3.90;;;1.70;;
43363;SDS011;40636;52.424;-1.948;2023-11-19T12:26:31;10.30;;;2.65;;
43363;SDS011;40636;52.424;-1.948;2023-11-19T12:29:00;7.95;;;2.40;;
43363;SDS011;40636;52.424;-1.948;2023-11-19T12:31:30;4.63;;;1.70;;
43363;SDS011;40636;52.424;-1.948;2023-11-19T12:33:57;3.92;;;1.40;;
43363;SDS011;40636;52.424;-1.948;2023-11-19T12:36:24;2.70;;;1.63;;
43363;SDS011;40636;52.424;-1.948;2023-11-19T12:38:51;5.57;;;1.83;;
43363;SDS011;40636;52.424;-1.948;2023-11-19T12:41:18;3.08;;;1.95;;
43363;SDS011;40636;52.424;-1.948;2023-11-19T12:43:49;4.40;;;1.85;;
43363;SDS011;40636;52.424;-1.948;2023-11-19T12:46:20;3.75;;;1.67;;
43363;SDS011;40636;52.424;-1.948;2023-11-19T12:48:48;3.28;;;1.52;;
43363;SDS011;40636;52.424;-1.948;2023-11-19T12:51:16;5.50;;;1.58;;
43363;SDS011;40636;52.424;-1.948;2023-11-19T12:53:49;4.93;;;1.77;;
43363;SDS011;40636;52.424;-1.948;2023-11-19T12:56:21;5.07;;;1.73;;
43363;SDS011;40636;52.424;-1.948;2023-11-19T12:58:49;4.28;;;2.03;;
43363;SDS011;40636;52.424;-1.948;2023-11-19T13:01:17;2.47;;;1.77;;
43363;SDS011;40636;52.424;-1.948;2023-11-19T13:03:48;5.15;;;1.67;;
43363;SDS011;40636;52.424;-1.948;2023-11-19T13:06:16;3.50;;;1.50;;
43363;SDS011;40636;52.424;-1.948;2023-11-19T13:08:47;4.97;;;1.33;;
43363;SDS011;40636;52.424;-1.948;2023-11-19T13:11:34;4.75;;;1.70;;
43363;SDS011;40636;52.424;-1.948;2023-11-19T13:14:03;4.72;;;1.75;;
43363;SDS011;40636;52.424;-1.948;2023-11-19T13:16:31;3.55;;;1.00;;
43363;SDS011;40636;52.424;-1.948;2023-11-19T13:18:59;2.50;;;1.00;;
43363;SDS011;40636;52.424;-1.948;2023-11-19T13:21:27;1.77;;;1.27;;
43363;SDS011;40636;52.424;-1.948;2023-11-19T13:23:55;1.75;;;1.42;;
43363;SDS011;40636;52.424;-1.948;2023-11-19T13:26:22;2.00;;;0.95;;
43363;SDS011;40636;52.424;-1.948;2023-11-19T13:28:49;1.13;;;0.65;;
43363;SDS011;40636;52.424;-1.948;2023-11-19T13:31:16;4.20;;;0.90;;
43363;SDS011;40636;52.424;-1.948;2023-11-19T13:33:43;1.70;;;1.20;;
43363;SDS011;40636;52.424;-1.948;2023-11-19T13:36:10;1.05;;;0.90;;
43363;SDS011;40636;52.424;-1.948;2023-11-19T13:38:42;2.30;;;1.00;;
43363;SDS011;40636;52.424;-1.948;2023-11-19T13:41:10;2.10;;;0.80;;
43363;SDS011;40636;52.424;-1.948;2023-11-19T13:43:39;2.10;;;0.88;;
43363;SDS011;40636;52.424;-1.948;2023-11-19T13:46:06;2.45;;;0.90;;
43363;SDS011;40636;52.424;-1.948;2023-11-19T13:48:37;1.75;;;0.88;;
43363;SDS011;40636;52.424;-1.948;2023-11-19T13:51:05;2.33;;;0.90;;
43363;SDS011;40636;52.424;-1.948;2023-11-19T13:53:32;1.13;;;0.70;;
43363;SDS011;40636;52.424;-1.948;2023-11-19T13:56:17;2.78;;;0.93;;
43363;SDS011;40636;52.424;-1.948;2023-11-19T13:58:44;2.72;;;1.00;;
43363;SDS011;40636;52.424;-1.948;2023-11-19T14:01:11;3.88;;;1.10;;
43363;SDS011;40636;52.424;-1.948;2023-11-19T14:03:39;3.63;;;1.00;;
43363;SDS011;40636;52.424;-1.948;2023-11-19T14:06:08;1.15;;;0.80;;
43363;SDS011;40636;52.424;-1.948;2023-11-19T14:08:35;0.98;;;0.55;;
43363;SDS011;40636;52.424;-1.948;2023-11-19T14:11:02;2.05;;;0.88;;
43363;SDS011;40636;52.424;-1.948;2023-11-19T14:13:29;3.40;;;1.33;;
43363;SDS011;40636;52.424;-1.948;2023-11-19T14:15:56;2.95;;;0.95;;
43363;SDS011;40636;52.424;-1.948;2023-11-19T14:18:23;2.38;;;1.00;;
43363;SDS011;40636;52.424;-1.948;2023-11-19T14:20:49;2.58;;;0.90;;
43363;SDS011;40636;52.424;-1.948;2023-11-19T14:23:16;2.58;;;1.13;;
43363;SDS011;40636;52.424;-1.948;2023-11-19T14:25:44;3.80;;;0.80;;
43363;SDS011;40636;52.424;-1.948;2023-11-19T14:28:11;1.98;;;1.00;;
43363;SDS011;40636;52.424;-1.948;2023-11-19T14:30:41;2.45;;;1.20;;
43363;SDS011;40636;52.424;-1.948;2023-11-19T14:33:09;4.63;;;0.90;;
43363;SDS011;40636;52.424;-1.948;2023-11-19T14:35:36;3.20;;;1.00;;
43363;SDS011;40636;52.424;-1.948;2023-11-19T14:38:04;2.08;;;1.20;;
43363;SDS011;40636;52.424;-1.948;2023-11-19T14:40:34;3.95;;;1.10;;
43363;SDS011;40636;52.424;-1.948;2023-11-19T14:43:03;4.97;;;1.52;;
43363;SDS011;40636;52.424;-1.948;2023-11-19T14:45:30;4.22;;;1.23;;
43363;SDS011;40636;52.424;-1.948;2023-11-19T14:50:34;5.25;;;1.92;;
43363;SDS011;40636;52.424;-1.948;2023-11-19T14:53:01;3.63;;;1.02;;